createdAt,value
2022-08-08T00:01:08.720Z,17.80
2022-08-08T00:06:28.361Z,17.70
2022-08-08T00:11:46.742Z,17.70
2022-08-08T00:17:22.481Z,17.70
2022-08-08T00:22:30.347Z,17.90
2022-08-08T00:27:36.925Z,17.80
2022-08-08T00:32:47.615Z,17.90
2022-08-08T00:38:32.291Z,17.30
2022-08-08T00:44:15.546Z,17.10
2022-08-08T00:49:58.939Z,17.00
2022-08-08T00:55:36.333Z,17.90
2022-08-08T01:00:58.757Z,16.40
2022-08-08T01:06:35.048Z,16.30
2022-08-08T01:12:13.846Z,16.40
2022-08-08T01:18:02.308Z,16.40
2022-08-08T01:24:02.832Z,16.40
2022-08-08T01:29:59.231Z,16.40
2022-08-08T01:36:01.093Z,16.60
2022-08-08T01:41:16.986Z,16.20
2022-08-08T01:46:52.093Z,16.00
2022-08-08T01:52:55.778Z,15.90
2022-08-08T01:58:04.524Z,15.80
2022-08-08T02:03:56.156Z,15.80
2022-08-08T02:08:58.657Z,15.70
2022-08-08T02:14:15.306Z,15.80
2022-08-08T02:19:41.804Z,15.70
2022-08-08T02:24:53.381Z,15.70
2022-08-08T02:30:07.072Z,15.70
2022-08-08T02:36:03.454Z,15.60
2022-08-08T02:42:04.043Z,15.40
2022-08-08T02:47:47.023Z,15.10
2022-08-08T02:53:09.947Z,15.10
2022-08-08T02:58:49.286Z,15.10
2022-08-08T03:05:08.272Z,15.20
2022-08-08T03:10:33.672Z,16.80
2022-08-08T03:16:12.914Z,15.00
2022-08-08T03:21:54.576Z,14.60
2022-08-08T03:27:11.127Z,14.60
2022-08-08T03:32:34.289Z,14.40
2022-08-08T03:38:54.684Z,14.40
2022-08-08T03:43:15.841Z,14.50
2022-08-08T03:49:09.109Z,14.50
2022-08-08T03:53:47.753Z,14.30
2022-08-08T03:58:54.100Z,14.10
2022-08-08T04:04:01.854Z,13.90
2022-08-08T04:09:59.002Z,13.80
2022-08-08T04:14:56.570Z,13.90
2022-08-08T04:20:01.924Z,14.10
2022-08-08T04:25:09.157Z,14.10
2022-08-08T04:30:20.585Z,13.90
2022-08-08T04:35:29.404Z,14.00
2022-08-08T04:40:36.547Z,14.00
2022-08-08T04:45:41.653Z,14.20
2022-08-08T04:50:46.885Z,14.40
2022-08-08T04:55:55.861Z,14.50
2022-08-08T05:01:08.991Z,18.80
2022-08-08T05:06:18.359Z,14.80
2022-08-08T05:11:29.933Z,14.90
2022-08-08T05:16:53.071Z,15.00
2022-08-08T05:22:06.243Z,15.10
2022-08-08T05:27:10.806Z,15.20
2022-08-08T05:32:18.105Z,15.30
2022-08-08T05:37:39.432Z,15.30
2022-08-08T05:42:52.885Z,14.80
2022-08-08T05:48:00.579Z,15.80
2022-08-08T05:53:54.892Z,16.30
2022-08-08T05:58:35.963Z,16.90
2022-08-08T06:03:42.847Z,17.50
2022-08-08T06:09:41.626Z,17.90
2022-08-08T06:14:26.490Z,19.20
2022-08-08T06:19:33.370Z,20.10
2022-08-08T06:24:40.209Z,21.10
2022-08-08T06:30:02.256Z,21.70
2022-08-08T06:36:08.914Z,22.20
2022-08-08T06:40:48.395Z,21.90
2022-08-08T06:45:53.191Z,22.00
2022-08-08T06:50:59.245Z,22.90
2022-08-08T06:56:04.890Z,23.60
2022-08-08T07:02:18.235Z,23.80
2022-08-08T07:06:45.026Z,24.30
2022-08-08T07:11:51.968Z,24.90
2022-08-08T07:17:09.274Z,24.30
2022-08-08T07:22:28.739Z,25.30
2022-08-08T07:27:47.336Z,23.00
2022-08-08T07:33:02.442Z,23.20
2022-08-08T07:38:18.329Z,24.70
2022-08-08T07:43:37.645Z,25.60
2022-08-08T07:48:46.626Z,25.70
2022-08-08T07:54:03.549Z,23.50
2022-08-08T07:59:19.455Z,25.30
2022-08-08T08:04:40.036Z,26.70
2022-08-08T08:09:46.956Z,27.80
2022-08-08T08:14:55.959Z,27.90
2022-08-08T08:20:05.708Z,28.40
2022-08-08T08:25:16.897Z,27.50
2022-08-08T08:30:39.797Z,25.20
2022-08-08T08:36:18.949Z,26.70
2022-08-08T08:41:13.254Z,28.10
2022-08-08T08:46:25.932Z,28.80
2022-08-08T08:51:31.482Z,27.10
2022-08-08T08:56:39.222Z,25.50
2022-08-08T09:01:51.761Z,27.70
2022-08-08T09:07:12.887Z,28.40
2022-08-08T09:12:20.466Z,27.90
2022-08-08T09:17:41.096Z,26.90
2022-08-08T09:22:49.996Z,28.50
2022-08-08T09:27:58.540Z,30.50
2022-08-08T09:33:12.276Z,31.10
2022-08-08T09:38:53.200Z,29.10
2022-08-08T09:44:13.059Z,30.50
2022-08-08T09:49:42.570Z,27.80
2022-08-08T09:54:45.965Z,30.50
2022-08-08T10:00:32.929Z,30.70
2022-08-08T10:05:22.854Z,31.10
2022-08-08T10:10:30.464Z,31.70
2022-08-08T10:15:39.596Z,33.20
2022-08-08T10:20:58.008Z,32.50
2022-08-08T10:26:05.286Z,31.80
2022-08-08T10:31:49.558Z,31.70
2022-08-08T10:36:53.847Z,32.40
2022-08-08T10:42:14.867Z,33.60
2022-08-08T10:47:21.715Z,33.90
2022-08-08T10:52:30.053Z,33.10
2022-08-08T10:57:43.203Z,33.30
2022-08-08T11:02:55.448Z,31.40
2022-08-08T11:08:37.219Z,33.30
2022-08-08T11:13:31.753Z,31.10
2022-08-08T11:18:37.887Z,27.90
2022-08-08T11:23:44.824Z,29.40
2022-08-08T11:29:07.601Z,32.40
2022-08-08T11:34:23.513Z,30.70
2022-08-08T11:39:37.153Z,32.10
2022-08-08T11:44:41.642Z,32.00
2022-08-08T11:49:50.344Z,30.90
2022-08-08T11:54:54.497Z,33.00
2022-08-08T12:00:02.800Z,33.10
2022-08-08T12:05:22.925Z,31.10
2022-08-08T12:10:28.817Z,31.40
2022-08-08T12:15:41.821Z,33.40
2022-08-08T12:20:48.126Z,34.80
2022-08-08T12:25:52.724Z,34.50
2022-08-08T12:31:07.525Z,32.30
2022-08-08T12:36:14.659Z,33.00
2022-08-08T12:41:35.195Z,33.30
2022-08-08T12:46:59.295Z,32.80
2022-08-08T12:52:14.134Z,32.60
2022-08-08T12:57:31.252Z,31.60
2022-08-08T13:02:36.318Z,29.00
2022-08-08T13:08:03.625Z,29.70
2022-08-08T13:13:08.129Z,30.20
2022-08-08T13:18:14.009Z,30.20
2022-08-08T13:23:30.846Z,30.50
2022-08-08T13:28:42.507Z,30.10
2022-08-08T13:33:49.881Z,29.60
2022-08-08T13:39:00.389Z,28.50
2022-08-08T13:44:04.849Z,28.60
2022-08-08T13:50:37.106Z,29.50
2022-08-08T13:54:49.491Z,29.90
2022-08-08T14:00:05.413Z,29.20
2022-08-08T14:05:22.250Z,29.30
2022-08-08T14:10:33.543Z,28.80
2022-08-08T14:15:46.479Z,29.20
2022-08-08T14:21:03.659Z,29.30
2022-08-08T14:26:28.009Z,29.60
2022-08-08T14:32:05.752Z,26.90
2022-08-08T14:36:55.022Z,29.10
2022-08-08T14:42:07.692Z,29.20
2022-08-08T14:47:16.698Z,29.40
2022-08-08T14:52:24.550Z,29.10
2022-08-08T14:58:03.580Z,29.40
2022-08-08T15:03:14.333Z,24.70
2022-08-08T15:08:22.436Z,29.60
2022-08-08T15:14:00.752Z,29.10
2022-08-08T15:19:05.114Z,28.30
2022-08-08T15:24:12.674Z,28.90
2022-08-08T15:29:18.805Z,29.10
2022-08-08T15:34:31.316Z,28.70
2022-08-08T15:39:38.092Z,29.20
2022-08-08T15:44:44.075Z,28.90
2022-08-08T15:49:49.162Z,28.00
2022-08-08T15:54:52.922Z,29.50
2022-08-08T16:00:18.214Z,29.80
2022-08-08T16:05:23.652Z,30.10
2022-08-08T16:13:28.302Z,30.00
2022-08-08T16:15:59.285Z,32.80
2022-08-08T16:21:25.840Z,34.60
2022-08-08T16:26:35.321Z,31.70
2022-08-08T16:31:48.541Z,31.00
2022-08-08T16:36:53.372Z,31.10
2022-08-08T16:42:01.422Z,29.90
2022-08-08T16:47:21.591Z,29.10
2022-08-08T16:55:05.575Z,28.40
2022-08-08T16:58:15.437Z,27.90
2022-08-08T17:03:25.365Z,27.40
2022-08-08T17:08:41.723Z,27.10
2022-08-08T17:14:00.738Z,27.10
2022-08-08T17:19:07.062Z,27.00
2022-08-08T17:24:27.106Z,26.80
2022-08-08T17:29:33.649Z,26.60
2022-08-08T17:35:00.137Z,26.40
2022-08-08T17:40:10.858Z,26.20
2022-08-08T17:45:23.303Z,26.00
2022-08-08T17:50:28.721Z,25.80
2022-08-08T17:56:04.983Z,25.60
2022-08-08T18:00:57.195Z,25.50
2022-08-08T18:06:02.730Z,25.20
2022-08-08T18:11:15.123Z,25.10
2022-08-08T18:16:22.959Z,24.90
2022-08-08T18:22:00.019Z,24.70
2022-08-08T18:26:56.811Z,24.50
2022-08-08T18:32:00.530Z,24.50
2022-08-08T18:37:10.219Z,24.20
2022-08-08T18:42:33.658Z,24.10
2022-08-08T18:47:37.251Z,23.90
2022-08-08T18:52:42.209Z,23.70
2022-08-08T18:57:45.878Z,23.50
2022-08-08T19:02:55.528Z,23.30
2022-08-08T19:08:02.273Z,23.10
2022-08-08T19:13:06.494Z,23.00
2022-08-08T19:18:31.986Z,22.80
2022-08-08T19:23:49.045Z,22.60
2022-08-08T19:28:52.394Z,22.50
2022-08-08T19:34:30.464Z,22.30
2022-08-08T19:39:23.132Z,22.10
2022-08-08T19:44:34.780Z,21.80
2022-08-08T19:50:00.253Z,21.50
2022-08-08T19:55:09.577Z,21.30
2022-08-08T20:00:30.490Z,21.20
2022-08-08T20:06:16.316Z,21.00
2022-08-08T20:11:00.196Z,20.60
2022-08-08T20:16:03.647Z,20.40
2022-08-08T20:21:08.268Z,20.30
2022-08-08T20:26:16.112Z,20.10
2022-08-08T20:31:19.861Z,20.00
2022-08-08T20:36:24.994Z,19.90
2022-08-08T20:41:32.094Z,19.80
2022-08-08T20:46:37.695Z,19.70
2022-08-08T20:51:41.193Z,19.60
2022-08-08T20:57:16.282Z,19.60
2022-08-08T21:02:12.763Z,19.60
2022-08-08T21:07:16.583Z,19.40
2022-08-08T21:12:24.830Z,19.30
2022-08-08T21:17:37.661Z,19.30
2022-08-08T21:22:41.350Z,19.30
2022-08-08T21:28:09.376Z,19.30
2022-08-08T21:33:11.625Z,19.30
2022-08-08T21:38:17.250Z,19.30
2022-08-08T21:43:22.978Z,19.30
2022-08-08T21:48:30.143Z,19.20
2022-08-08T21:54:30.753Z,19.30
2022-08-08T21:59:09.942Z,19.30
2022-08-08T22:04:13.379Z,19.20
2022-08-08T22:09:18.768Z,19.20
2022-08-08T22:14:26.841Z,19.20
2022-08-08T22:20:10.591Z,19.20
2022-08-08T22:24:56.331Z,19.20
2022-08-08T22:30:03.342Z,19.20
2022-08-08T22:35:08.501Z,19.10
2022-08-08T22:40:16.585Z,15.30
2022-08-08T22:45:21.825Z,19.00
2022-08-08T22:50:28.353Z,18.90
2022-08-08T22:55:32.166Z,18.70
2022-08-08T23:00:59.800Z,18.40
2022-08-08T23:06:03.808Z,18.30
2022-08-08T23:11:13.366Z,18.20
2022-08-08T23:16:38.200Z,18.00
2022-08-08T23:21:41.524Z,18.00
2022-08-08T23:26:55.776Z,18.00
2022-08-08T23:32:01.810Z,17.90
2022-08-08T23:37:08.605Z,18.00
2022-08-08T23:42:15.107Z,17.90
2022-08-08T23:49:08.551Z,17.90
2022-08-08T23:52:46.436Z,17.90
2022-08-08T23:57:53.196Z,17.90
